Time;durP1;ratioP1;P1;durP2;ratioP2;P2;SDS_P1;SDS_P2;PMS_P1;PMS_P2;Temp;Humidity;BMP_temperature;BMP_pressure;BME280_temperature;BME280_humidity;BME280_pressure;Samples;Min_cycle;Max_cycle;Signal;HPM_P1;HPM_P2
2021/07/08 04:32:18;;;;;;;6.17;5.47;;;17.20;99.90;;;;;;5390960;23;20507;-73
2021/07/08 04:34:44;;;;;;;7.77;5.10;;;17.20;99.90;;;;;;4945590;29;20460;-73
2021/07/08 04:37:10;;;;;;;5.90;5.10;;;17.30;99.90;;;;;;4954901;29;20420;-73
2021/07/08 04:39:38;;;;;;;7.40;5.10;;;17.30;99.90;;;;;;4952965;28;20420;-73
2021/07/08 04:42:04;;;;;;;7.50;4.60;;;17.30;99.90;;;;;;4935722;29;20193;-73
2021/07/08 04:44:30;;;;;;;5.47;5.03;;;17.30;99.90;;;;;;4948677;29;20441;-73
2021/07/08 04:46:55;;;;;;;7.03;4.47;;;17.40;99.90;;;;;;4953192;29;20224;-73
2021/07/08 04:49:21;;;;;;;8.13;5.27;;;17.40;99.90;;;;;;4952300;29;20235;-73
2021/07/08 04:51:47;;;;;;;4.57;4.13;;;17.40;99.90;;;;;;4945314;29;20197;-73
2021/07/08 04:54:12;;;;;;;5.10;4.47;;;17.40;99.90;;;;;;4934445;29;20700;-73
2021/07/08 04:56:38;;;;;;;9.33;4.93;;;17.40;99.90;;;;;;4947609;29;20257;-73
2021/07/08 04:59:03;;;;;;;4.90;4.40;;;17.40;99.90;;;;;;4941872;29;20213;-73
2021/07/08 05:01:29;;;;;;;7.20;4.70;;;17.40;99.90;;;;;;4940033;29;20289;-75
2021/07/08 05:03:58;;;;;;;3.70;3.40;;;17.40;99.90;;;;;;4952577;29;20275;-75
2021/07/08 05:06:24;;;;;;;7.70;3.87;;;17.40;99.90;;;;;;4950762;28;20177;-75
2021/07/08 05:08:50;;;;;;;5.77;3.90;;;17.40;99.90;;;;;;4952936;29;20431;-76
2021/07/08 05:11:15;;;;;;;5.73;4.47;;;17.40;99.90;;;;;;4945339;29;20204;-75
2021/07/08 05:13:41;;;;;;;5.37;4.10;;;17.50;99.90;;;;;;4943797;29;20440;-75
2021/07/08 05:16:07;;;;;;;7.50;4.43;;;17.50;99.90;;;;;;4952547;28;20205;-75
2021/07/08 05:18:32;;;;;;;5.50;4.17;;;17.60;99.90;;;;;;4947938;29;20204;-76
2021/07/08 05:20:59;;;;;;;5.87;4.40;;;17.60;99.90;;;;;;4933582;29;20198;-75
2021/07/08 05:23:26;;;;;;;14.60;5.83;;;17.70;99.90;;;;;;4941578;29;20670;-77
2021/07/08 05:25:52;;;;;;;6.83;4.40;;;17.70;99.90;;;;;;4952727;28;20424;-77
2021/07/08 05:28:18;;;;;;;4.00;3.70;;;17.70;99.90;;;;;;4949165;28;20436;-77
2021/07/08 05:30:44;;;;;;;9.63;4.37;;;17.80;99.90;;;;;;4952433;28;20436;-76
2021/07/08 05:33:10;;;;;;;10.13;4.80;;;17.80;99.90;;;;;;4948680;28;20495;-77
2021/07/08 05:35:36;;;;;;;6.03;4.30;;;17.80;99.90;;;;;;4950051;29;20303;-77
2021/07/08 05:38:02;;;;;;;5.13;3.70;;;17.80;99.90;;;;;;4952797;29;20172;-77
2021/07/08 05:40:28;;;;;;;5.00;3.50;;;17.90;99.90;;;;;;4953733;29;20181;-81
2021/07/08 05:42:54;;;;;;;8.67;3.40;;;17.90;99.90;;;;;;4953499;29;20503;-77
2021/07/08 05:45:20;;;;;;;5.10;3.80;;;18.00;99.90;;;;;;4939059;28;20195;-76
2021/07/08 05:47:46;;;;;;;3.60;3.10;;;18.10;99.90;;;;;;4934807;29;20580;-77
2021/07/08 05:50:12;;;;;;;5.70;4.00;;;18.10;99.90;;;;;;4933895;29;20423;-76
2021/07/08 05:52:37;;;;;;;4.40;2.67;;;18.10;99.90;;;;;;4934198;29;20185;-76
2021/07/08 05:55:04;;;;;;;4.33;2.83;;;18.10;99.90;;;;;;4933796;29;20387;-77
2021/07/08 05:57:30;;;;;;;3.17;2.87;;;18.10;99.90;;;;;;4933896;29;20208;-77
2021/07/08 05:59:55;;;;;;;2.63;2.33;;;18.00;99.90;;;;;;4934600;29;20542;-77
2021/07/08 06:02:21;;;;;;;2.70;2.50;;;18.00;99.90;;;;;;4953608;28;20195;-79
2021/07/08 06:04:46;;;;;;;2.37;2.17;;;18.10;99.90;;;;;;4958694;29;20235;-78
2021/07/08 06:07:12;;;;;;;3.57;2.57;;;18.10;99.90;;;;;;4955871;28;20199;-77
2021/07/08 06:09:41;;;;;;;7.07;2.70;;;18.10;99.90;;;;;;4956156;29;20184;-80
2021/07/08 06:12:07;;;;;;;3.17;2.40;;;18.10;99.90;;;;;;4957750;29;20212;-80
2021/07/08 06:14:35;;;;;;;6.00;2.07;;;18.10;99.90;;;;;;4956714;29;20440;-80
2021/07/08 06:17:01;;;;;;;2.70;2.60;;;18.20;99.90;;;;;;4957680;28;20244;-80
2021/07/08 06:19:27;;;;;;;3.50;2.27;;;18.20;99.90;;;;;;4956810;29;20420;-80
2021/07/08 06:21:53;;;;;;;5.40;3.00;;;18.20;99.90;;;;;;4956632;28;20197;-80
2021/07/08 06:24:24;;;;;;;3.43;2.37;;;18.30;99.90;;;;;;4955919;29;20416;-77
2021/07/08 06:26:50;;;;;;;2.90;2.53;;;18.30;99.90;;;;;;4957786;28;20189;-79
2021/07/08 06:29:20;;;;;;;4.07;2.53;;;18.30;99.90;;;;;;4950027;29;20780;-76
2021/07/08 06:31:46;;;;;;;2.87;2.53;;;18.40;99.90;;;;;;4952601;28;20636;-76
2021/07/08 06:34:11;;;;;;;4.87;2.60;;;18.40;99.90;;;;;;4953766;28;20479;-76
2021/07/08 06:36:38;;;;;;;2.40;2.30;;;18.40;99.90;;;;;;4955884;29;20208;-76
2021/07/08 06:39:07;;;;;;;3.23;2.47;;;18.50;99.90;;;;;;4956139;28;20240;-76
2021/07/08 06:41:36;;;;;;;2.40;2.30;;;18.40;99.90;;;;;;4955787;28;20431;-76
2021/07/08 06:44:02;;;;;;;6.00;3.30;;;18.40;99.90;;;;;;4955996;28;20427;-76
2021/07/08 06:46:31;;;;;;;3.13;2.83;;;18.40;99.90;;;;;;4956039;28;20420;-76
2021/07/08 06:49:03;;;;;;;3.47;2.33;;;18.50;99.90;;;;;;4956315;29;20420;-76
2021/07/08 06:51:29;;;;;;;3.10;2.90;;;18.50;99.90;;;;;;4956011;28;20781;-76
2021/07/08 06:53:55;;;;;;;4.40;3.13;;;18.40;99.90;;;;;;4956642;28;20455;-76
2021/07/08 06:56:22;;;;;;;3.50;2.47;;;18.40;99.90;;;;;;4955871;28;20496;-76
2021/07/08 06:58:48;;;;;;;4.47;2.50;;;18.40;99.90;;;;;;4955992;28;20436;-76
2021/07/08 07:01:14;;;;;;;3.00;2.80;;;18.30;99.90;;;;;;4956084;28;20432;-76
2021/07/08 07:03:40;;;;;;;4.40;3.03;;;18.40;99.90;;;;;;4955593;29;20424;-77
2021/07/08 07:06:05;;;;;;;3.57;2.83;;;18.40;99.90;;;;;;4955698;29;20428;-76
2021/07/08 07:08:31;;;;;;;8.30;3.77;;;18.40;99.90;;;;;;4954521;29;20192;-76
2021/07/08 07:13:27;;;;;;;2.80;2.63;;;18.50;99.90;;;;;;4936037;29;20220;-73
2021/07/08 07:15:53;;;;;;;9.00;2.90;;;18.60;99.90;;;;;;4937392;29;20990;-73
2021/07/08 07:18:19;;;;;;;5.97;3.20;;;18.80;99.90;;;;;;4936106;29;20643;-73
2021/07/08 07:20:44;;;;;;;8.83;3.37;;;18.80;99.90;;;;;;4936029;29;20217;-73
2021/07/08 07:23:10;;;;;;;6.00;2.80;;;18.90;99.90;;;;;;4931569;29;20182;-73
2021/07/08 07:25:42;;;;;;;2.90;2.70;;;19.00;99.90;;;;;;4936380;29;20260;-73
2021/07/08 07:28:09;;;;;;;4.53;2.80;;;19.10;99.90;;;;;;4934362;29;20191;-72
2021/07/08 07:30:35;;;;;;;2.97;2.73;;;19.10;99.90;;;;;;4935897;29;20421;-70
2021/07/08 07:33:00;;;;;;;7.93;3.70;;;19.10;99.90;;;;;;4932178;29;20868;-73
2021/07/08 07:35:26;;;;;;;4.67;3.23;;;19.10;99.90;;;;;;4933682;29;20299;-73
2021/07/08 07:37:52;;;;;;;3.87;3.57;;;19.10;99.90;;;;;;4932682;29;20341;-73
2021/07/08 07:40:19;;;;;;;5.13;4.63;;;19.10;99.90;;;;;;4935782;29;20241;-73
2021/07/08 07:42:44;;;;;;;4.83;4.40;;;19.10;99.90;;;;;;4933321;29;20202;-79
2021/07/08 07:45:11;;;;;;;5.90;3.90;;;19.10;99.90;;;;;;4932571;29;20500;-78
2021/07/08 07:47:36;;;;;;;7.90;4.67;;;19.10;99.90;;;;;;4936994;29;20192;-78
2021/07/08 07:50:05;;;;;;;6.37;4.00;;;19.20;99.90;;;;;;4932299;29;20440;-78
2021/07/08 07:52:30;;;;;;;4.13;3.80;;;19.20;99.90;;;;;;4936389;29;20237;-79
2021/07/08 07:54:56;;;;;;;6.30;3.80;;;19.30;99.90;;;;;;4934650;29;20515;-78
2021/07/08 07:57:21;;;;;;;4.53;3.70;;;19.30;99.90;;;;;;4932308;29;20193;-78
2021/07/08 07:59:47;;;;;;;3.80;3.40;;;19.50;99.90;;;;;;4932615;29;20281;-78
2021/07/08 08:02:13;;;;;;;4.50;4.10;;;19.60;99.90;;;;;;4935672;29;20593;-79
2021/07/08 08:04:46;;;;;;;10.93;3.30;;;19.60;99.90;;;;;;4936021;29;20169;-78
2021/07/08 08:09:57;;;;;;;3.83;3.50;;;19.70;99.90;;;;;;4935983;29;20432;-78
2021/07/08 08:12:23;;;;;;;2.80;2.60;;;19.70;99.90;;;;;;4933277;29;20505;-77
2021/07/08 08:14:50;;;;;;;5.00;3.50;;;19.70;99.90;;;;;;4933715;28;20500;-77
2021/07/08 08:17:16;;;;;;;4.97;3.33;;;19.70;99.90;;;;;;4933345;29;20444;-78
2021/07/08 08:19:41;;;;;;;2.93;2.73;;;19.70;99.90;;;;;;4933778;29;20448;-77
2021/07/08 08:22:10;;;;;;;4.13;3.60;;;19.70;99.90;;;;;;4933514;29;20437;-79
2021/07/08 08:24:36;;;;;;;3.87;3.57;;;19.80;99.90;;;;;;4936328;29;20185;-78
2021/07/08 08:27:02;;;;;;;9.53;5.50;;;20.00;99.90;;;;;;4934441;29;20788;-78
2021/07/08 08:29:27;;;;;;;6.67;4.70;;;20.20;99.90;;;;;;4928975;29;20204;-78
2021/07/08 08:31:53;;;;;;;12.43;6.07;;;20.50;99.90;;;;;;4935942;29;20344;-77
2021/07/08 08:34:18;;;;;;;13.47;7.70;;;20.70;99.90;;;;;;4931483;29;20196;-78
2021/07/08 08:36:45;;;;;;;8.53;4.70;;;20.90;99.90;;;;;;4935685;29;20209;-77
2021/07/08 08:39:11;;;;;;;7.07;4.17;;;21.10;99.90;;;;;;4933608;29;20216;-79
2021/07/08 08:41:36;;;;;;;3.57;3.27;;;21.30;99.90;;;;;;4933846;29;20460;-79
2021/07/08 08:44:03;;;;;;;3.10;2.80;;;21.20;99.90;;;;;;4933650;29;20531;-78
2021/07/08 08:46:29;;;;;;;8.97;3.97;;;21.40;99.90;;;;;;4933727;29;20193;-78
2021/07/08 08:48:54;;;;;;;3.47;2.93;;;21.50;99.90;;;;;;4933657;29;20430;-78
2021/07/08 08:51:22;;;;;;;4.37;2.90;;;21.80;99.90;;;;;;4923995;29;20253;-78
2021/07/08 08:53:47;;;;;;;6.73;3.37;;;22.00;99.90;;;;;;4935610;29;20718;-78
2021/07/08 08:56:13;;;;;;;3.33;3.03;;;22.00;99.90;;;;;;4933144;29;20567;-78
2021/07/08 08:58:38;;;;;;;5.10;3.00;;;21.90;99.90;;;;;;4933316;29;20181;-78
2021/07/08 09:01:05;;;;;;;3.90;3.60;;;22.00;99.90;;;;;;4933458;29;20209;-78
2021/07/08 09:03:34;;;;;;;7.53;3.30;;;22.10;99.90;;;;;;4933592;29;20194;-77
2021/07/08 09:06:06;;;;;;;4.67;3.50;;;22.30;99.90;;;;;;4941281;29;20425;-77
2021/07/08 09:08:34;;;;;;;3.23;2.93;;;22.40;99.90;;;;;;4933687;29;21020;-78
2021/07/08 09:11:08;;;;;;;4.50;3.50;;;22.40;99.90;;;;;;4935600;29;20813;-79
2021/07/08 09:13:46;;;;;;;4.40;3.80;;;22.30;99.90;;;;;;4925374;29;20890;-78
2021/07/08 09:16:15;;;;;;;7.30;3.70;;;22.00;99.90;;;;;;4934892;29;20475;-78
2021/07/08 09:18:43;;;;;;;5.60;3.73;;;21.90;99.90;;;;;;4933082;29;20467;-78
2021/07/08 09:21:20;;;;;;;4.87;3.60;;;21.80;99.90;;;;;;4934449;29;20433;-78
2021/07/08 09:24:09;;;;;;;2.73;2.53;;;21.90;99.90;;;;;;4932985;29;20464;-78
2021/07/08 09:26:37;;;;;;;3.27;3.00;;;22.00;99.90;;;;;;4932659;29;20436;-78
2021/07/08 09:29:18;;;;;;;6.93;3.30;;;21.80;99.90;;;;;;4930761;29;20756;-78
2021/07/08 09:31:49;;;;;;;3.40;3.10;;;21.70;99.90;;;;;;4916262;29;20967;-79
2021/07/08 09:34:19;;;;;;;4.90;3.37;;;21.60;99.90;;;;;;4920603;29;20449;-78
2021/07/08 09:36:48;;;;;;;5.80;2.80;;;21.60;99.90;;;;;;4914661;29;20469;-78
2021/07/08 09:39:13;;;;;;;4.33;3.43;;;21.40;99.90;;;;;;4916260;29;20430;-77
2021/07/08 09:41:47;;;;;;;3.00;2.80;;;21.20;99.90;;;;;;4928784;29;20465;-77
2021/07/08 09:44:20;;;;;;;3.53;3.03;;;21.20;99.90;;;;;;4932271;29;20201;-77
2021/07/08 09:46:46;;;;;;;3.77;3.17;;;21.20;99.90;;;;;;4927493;29;20476;-78
2021/07/08 09:49:12;;;;;;;3.70;3.40;;;21.20;99.90;;;;;;4935617;29;20448;-77
2021/07/08 09:51:41;;;;;;;3.40;3.10;;;21.20;99.90;;;;;;4933578;29;20209;-78
2021/07/08 09:54:14;;;;;;;3.53;3.23;;;21.20;99.90;;;;;;4933509;29;20189;-78
2021/07/08 09:56:51;;;;;;;3.17;2.97;;;21.20;99.90;;;;;;4932870;29;20879;-77
2021/07/08 09:59:20;;;;;;;5.10;4.10;;;21.30;99.90;;;;;;4923092;29;20444;-77
2021/07/08 10:01:57;;;;;;;3.80;3.40;;;21.40;99.90;;;;;;4934430;29;20504;-78
2021/07/08 10:04:24;;;;;;;7.77;4.60;;;21.50;99.90;;;;;;4932988;29;20436;-78
2021/07/08 10:06:50;;;;;;;7.30;3.50;;;21.40;99.90;;;;;;4933043;29;20444;-78
2021/07/08 10:09:18;;;;;;;4.17;3.10;;;21.30;99.90;;;;;;4934771;29;20500;-79
2021/07/08 10:11:50;;;;;;;3.73;3.43;;;21.40;99.90;;;;;;4937015;29;20475;-78
2021/07/08 10:14:20;;;;;;;3.20;2.77;;;21.40;99.90;;;;;;4936696;29;20950;-78
2021/07/08 10:16:54;;;;;;;3.03;2.63;;;21.50;99.90;;;;;;4936533;29;20480;-78
2021/07/08 10:19:24;;;;;;;3.73;2.43;;;21.80;99.90;;;;;;4920444;29;20468;-78
2021/07/08 10:21:52;;;;;;;3.33;2.30;;;21.90;99.90;;;;;;4920580;29;21005;-78
2021/07/08 10:24:18;;;;;;;4.17;3.30;;;22.10;99.90;;;;;;4936216;29;20420;-78
2021/07/08 10:26:45;;;;;;;6.93;3.27;;;22.20;99.90;;;;;;4936301;29;20570;-78
2021/07/08 10:29:15;;;;;;;4.50;3.10;;;22.40;99.90;;;;;;4935605;28;20445;-80
2021/07/08 10:31:46;;;;;;;3.10;2.80;;;22.60;99.90;;;;;;4936494;29;20467;-78
2021/07/08 10:34:14;;;;;;;3.07;2.87;;;22.80;99.90;;;;;;4919011;29;21014;-78
2021/07/08 10:36:43;;;;;;;2.73;2.53;;;23.10;99.90;;;;;;4935256;28;20484;-79
2021/07/08 10:39:15;;;;;;;3.50;3.30;;;23.40;99.90;;;;;;4936602;29;20421;-78
2021/07/08 10:41:44;;;;;;;4.73;2.83;;;23.50;99.90;;;;;;4937146;29;20460;-79
2021/07/08 10:44:41;;;;;;;7.93;3.13;;;23.60;99.90;;;;;;4939227;29;20579;-78
2021/07/08 10:47:32;;;;;;;2.30;2.20;;;23.70;99.90;;;;;;4934294;29;20535;-78
2021/07/08 10:49:58;;;;;;;3.53;2.70;;;23.80;99.90;;;;;;4936256;29;20429;-77
2021/07/08 10:52:50;;;;;;;2.27;2.07;;;23.60;99.90;;;;;;4935125;29;20464;-79
2021/07/08 10:55:38;;;;;;;2.67;2.20;;;23.50;99.90;;;;;;4932175;29;20509;-78
2021/07/08 10:58:05;;;;;;;2.40;2.27;;;23.40;99.90;;;;;;4932033;29;20438;-79
2021/07/08 11:00:48;;;;;;;3.47;2.40;;;22.80;99.90;;;;;;4936127;29;20957;-78
2021/07/08 11:03:46;;;;;;;2.33;2.17;;;22.60;99.90;;;;;;4932991;29;20426;-78
2021/07/08 11:06:30;;;;;;;2.83;2.43;;;22.50;99.90;;;;;;4915097;29;20555;-79
2021/07/08 11:09:16;;;;;;;1.73;1.63;;;22.40;99.90;;;;;;4933589;29;20450;-78
2021/07/08 11:11:44;;;;;;;1.73;1.63;;;22.10;99.90;;;;;;4916104;29;20545;-79
2021/07/08 11:14:11;;;;;;;2.03;1.93;;;22.10;99.90;;;;;;4920374;29;20823;-78
2021/07/08 11:16:48;;;;;;;1.90;1.80;;;22.10;99.90;;;;;;4934593;29;21130;-77
2021/07/08 11:19:30;;;;;;;1.50;1.40;;;22.00;99.90;;;;;;4934684;29;20425;-77
2021/07/08 11:22:21;;;;;;;2.23;1.47;;;22.00;99.90;;;;;;4934814;29;20869;-77
2021/07/08 11:24:53;;;;;;;2.13;1.60;;;21.80;99.90;;;;;;4930908;29;20481;-76
2021/07/08 11:27:24;;;;;;;3.33;1.40;;;21.80;99.90;;;;;;4934715;29;20455;-75
2021/07/08 11:29:52;;;;;;;2.13;1.93;;;21.80;99.90;;;;;;4934719;29;20472;-75
2021/07/08 11:32:26;;;;;;;3.20;1.97;;;21.70;99.90;;;;;;4934933;29;20492;-78
2021/07/08 11:34:56;;;;;;;2.30;2.07;;;21.70;99.90;;;;;;4934489;29;20444;-78
2021/07/08 11:40:09;;;;;;;3.50;1.57;;;21.70;99.90;;;;;;4932848;29;20546;-78
2021/07/08 11:42:36;;;;;;;2.10;1.30;;;21.60;99.90;;;;;;4931956;29;20524;-77
2021/07/08 11:45:08;;;;;;;2.10;1.20;;;21.40;99.90;;;;;;4924632;29;20433;-80
2021/07/08 11:47:54;;;;;;;0.90;0.90;;;21.40;99.90;;;;;;4940957;29;20425;-79
2021/07/08 11:50:24;;;;;;;2.50;1.10;;;21.40;99.90;;;;;;4939361;29;20436;-79
2021/07/08 11:53:11;;;;;;;1.30;1.13;;;21.30;99.90;;;;;;4945711;29;20483;-78
2021/07/08 11:55:44;;;;;;;2.37;0.93;;;21.30;99.90;;;;;;4935808;29;20472;-78
2021/07/08 11:58:11;;;;;;;1.10;0.87;;;21.30;99.90;;;;;;4934615;29;20428;-79
2021/07/08 12:00:48;;;;;;;1.87;1.33;;;21.20;99.90;;;;;;4934692;29;20425;-78
2021/07/08 12:03:27;;;;;;;1.93;1.83;;;21.20;99.90;;;;;;4920442;29;20421;-79
2021/07/08 12:06:05;;;;;;;1.20;1.10;;;20.90;99.90;;;;;;4935005;29;20926;-78
2021/07/08 12:08:39;;;;;;;2.10;1.87;;;20.80;99.90;;;;;;4934030;29;20425;-78
2021/07/08 12:11:09;;;;;;;1.50;1.40;;;20.70;99.90;;;;;;4933899;29;20449;-78
2021/07/08 12:13:56;;;;;;;1.57;1.47;;;20.70;99.90;;;;;;4934419;28;20875;-79
2021/07/08 12:16:37;;;;;;;1.40;1.30;;;20.70;99.90;;;;;;4933819;29;20472;-79
2021/07/08 12:19:05;;;;;;;1.57;1.23;;;20.70;99.90;;;;;;4934741;29;20429;-79
2021/07/08 12:21:37;;;;;;;2.70;1.10;;;20.80;99.90;;;;;;4933995;29;20538;-79
2021/07/08 12:24:24;;;;;;;2.73;1.13;;;21.00;99.90;;;;;;4934461;29;20425;-80
2021/07/08 12:26:53;;;;;;;5.80;0.90;;;21.20;99.90;;;;;;4934531;29;20495;-79
2021/07/08 12:29:26;;;;;;;3.03;1.30;;;21.30;99.90;;;;;;4934198;29;20456;-79
2021/07/08 12:31:56;;;;;;;0.90;0.90;;;21.30;99.90;;;;;;4933250;29;20463;-79
2021/07/08 12:34:33;;;;;;;1.93;0.90;;;21.40;99.90;;;;;;4933927;29;20517;-79
2021/07/08 12:37:28;;;;;;;1.23;1.07;;;21.40;99.90;;;;;;4933736;29;20968;-79
2021/07/08 12:40:00;;;;;;;1.77;0.90;;;21.40;99.90;;;;;;4934688;29;20504;-79
2021/07/08 12:42:28;;;;;;;1.17;0.90;;;21.50;99.90;;;;;;4933510;29;20476;-79
2021/07/08 12:44:58;;;;;;;1.10;1.00;;;21.50;99.90;;;;;;4933711;29;20516;-79
2021/07/08 12:47:24;;;;;;;2.60;0.80;;;21.60;99.90;;;;;;4933939;29;20422;-79
2021/07/08 12:49:52;;;;;;;2.17;1.37;;;21.70;99.90;;;;;;4933707;29;20978;-79
2021/07/08 12:52:18;;;;;;;1.47;1.40;;;21.80;99.90;;;;;;4933635;29;20265;-78
2021/07/08 12:54:44;;;;;;;1.40;1.00;;;21.80;99.90;;;;;;4933424;29;20425;-79
2021/07/08 12:57:16;;;;;;;1.57;1.07;;;21.90;99.90;;;;;;4933322;29;20417;-79
2021/07/08 13:00:09;;;;;;;5.43;1.00;;;21.90;99.90;;;;;;4933510;29;20530;-79
2021/07/08 13:02:36;;;;;;;3.27;0.93;;;21.90;99.90;;;;;;4933106;29;20441;-78
2021/07/08 13:05:12;;;;;;;1.90;1.00;;;21.90;99.90;;;;;;4934353;29;20436;-79
2021/07/08 13:07:39;;;;;;;0.90;0.80;;;21.90;99.90;;;;;;4934720;29;20421;-78
2021/07/08 13:10:11;;;;;;;5.13;1.27;;;22.00;99.90;;;;;;4934084;29;20863;-79
2021/07/08 13:12:38;;;;;;;3.57;1.10;;;21.90;99.90;;;;;;4934296;29;20480;-79
2021/07/08 13:15:06;;;;;;;1.50;1.40;;;21.90;99.90;;;;;;4934680;29;20464;-79
2021/07/08 13:17:33;;;;;;;4.30;1.70;;;21.80;99.90;;;;;;4935073;29;20425;-79
2021/07/08 13:20:09;;;;;;;1.47;1.37;;;21.70;99.90;;;;;;4934812;29;20453;-79
2021/07/08 13:22:44;;;;;;;5.13;1.43;;;21.70;99.90;;;;;;4933584;29;20453;-78
2021/07/08 13:25:15;;;;;;;13.97;1.67;;;21.70;99.90;;;;;;4934450;29;20524;-79
2021/07/08 13:27:41;;;;;;;1.50;1.40;;;21.70;99.90;;;;;;4934604;29;20428;-80
2021/07/08 13:30:25;;;;;;;3.07;1.83;;;21.70;99.90;;;;;;4932898;29;20429;-79
2021/07/08 13:32:59;;;;;;;2.27;2.10;;;21.50;99.90;;;;;;4934049;29;20200;-81
2021/07/08 13:35:57;;;;;;;2.07;1.53;;;21.40;99.90;;;;;;4932881;29;20516;-79
2021/07/08 13:38:31;;;;;;;1.57;1.50;;;21.40;99.90;;;;;;4930499;29;20429;-79
2021/07/08 13:41:10;;;;;;;1.90;1.80;;;21.40;99.90;;;;;;4933167;29;20483;-79
2021/07/08 13:43:39;;;;;;;6.60;1.87;;;21.60;99.90;;;;;;4934747;29;20456;-79
2021/07/08 13:46:24;;;;;;;2.40;1.87;;;21.60;99.90;;;;;;4937285;29;20472;-79
2021/07/08 13:49:17;;;;;;;3.17;1.70;;;21.60;99.90;;;;;;4937717;29;20500;-80
2021/07/08 13:51:53;;;;;;;3.37;1.97;;;21.70;99.90;;;;;;4938416;29;20445;-79
2021/07/08 13:54:32;;;;;;;1.73;1.57;;;21.80;99.90;;;;;;4937712;29;20726;-79
2021/07/08 13:56:57;;;;;;;3.30;2.03;;;21.80;99.90;;;;;;4937126;28;20472;-79
2021/07/08 13:59:23;;;;;;;2.80;1.70;;;22.00;99.90;;;;;;4937117;29;20425;-79
2021/07/08 14:01:49;;;;;;;3.63;1.80;;;22.00;99.90;;;;;;4937672;29;20201;-80
2021/07/08 14:04:15;;;;;;;2.33;2.13;;;21.80;99.90;;;;;;4937982;29;20762;-79
2021/07/08 14:06:41;;;;;;;1.40;1.30;;;21.80;99.90;;;;;;4935959;29;20181;-79
2021/07/08 14:09:07;;;;;;;3.43;1.70;;;22.00;99.90;;;;;;4937303;29;21350;-79
2021/07/08 14:11:34;;;;;;;3.33;1.87;;;22.20;99.90;;;;;;4937711;29;20265;-78
2021/07/08 14:14:02;;;;;;;1.73;1.63;;;22.20;99.90;;;;;;4938849;29;20186;-78
2021/07/08 14:16:28;;;;;;;3.37;1.60;;;22.20;99.90;;;;;;4940231;29;20460;-78
2021/07/08 14:18:54;;;;;;;2.10;2.00;;;22.20;99.90;;;;;;4937378;29;20510;-78
2021/07/08 14:21:21;;;;;;;2.00;1.83;;;22.30;99.90;;;;;;4936393;29;20966;-80
2021/07/08 14:23:48;;;;;;;6.20;1.80;;;22.30;99.90;;;;;;4936593;29;20451;-78
2021/07/08 14:26:18;;;;;;;2.43;2.23;;;22.20;99.90;;;;;;4937317;29;20436;-78
2021/07/08 14:28:45;;;;;;;5.80;2.07;;;22.10;99.90;;;;;;4941146;29;20496;-78
2021/07/08 14:31:11;;;;;;;3.37;3.07;;;21.90;99.90;;;;;;4941238;29;20512;-79
2021/07/08 14:33:37;;;;;;;2.37;2.27;;;21.90;99.90;;;;;;4938413;29;20441;-78
2021/07/08 14:36:04;;;;;;;3.13;2.67;;;22.00;99.90;;;;;;4937382;29;20209;-78
2021/07/08 14:38:30;;;;;;;2.53;2.33;;;22.00;99.90;;;;;;4936341;29;20421;-77
2021/07/08 14:40:58;;;;;;;3.13;2.87;;;22.20;99.90;;;;;;4937414;29;20440;-78
2021/07/08 14:43:57;;;;;;;3.30;3.00;;;22.20;99.90;;;;;;4937343;29;20504;-78
2021/07/08 14:46:26;;;;;;;4.00;3.70;;;22.20;99.90;;;;;;4935306;29;20804;-78
2021/07/08 14:48:54;;;;;;;6.60;3.40;;;22.30;99.90;;;;;;4937221;29;20425;-78
2021/07/08 14:51:21;;;;;;;3.43;3.07;;;22.10;99.90;;;;;;4936214;29;20521;-78
2021/07/08 14:53:47;;;;;;;5.33;4.20;;;22.10;99.90;;;;;;4934382;29;20437;-76
2021/07/08 14:56:13;;;;;;;3.47;3.20;;;22.10;99.90;;;;;;4943842;29;20461;-77
2021/07/08 14:58:38;;;;;;;3.57;3.37;;;22.40;99.90;;;;;;4936960;29;20429;-79
2021/07/08 15:01:04;;;;;;;3.83;3.63;;;22.40;99.90;;;;;;4937378;29;20193;-78
2021/07/08 15:03:29;;;;;;;3.90;3.60;;;22.50;99.90;;;;;;4937281;29;20232;-78
2021/07/08 15:05:56;;;;;;;3.40;3.20;;;22.40;99.90;;;;;;4935966;29;20188;-78
2021/07/08 15:08:22;;;;;;;4.23;3.10;;;22.40;99.90;;;;;;4935336;29;20189;-78
2021/07/08 15:10:47;;;;;;;2.97;2.87;;;22.50;99.90;;;;;;4936791;29;20521;-78
2021/07/08 15:13:14;;;;;;;3.77;2.80;;;22.60;99.90;;;;;;4936891;29;20195;-78
2021/07/08 15:15:40;;;;;;;2.40;2.27;;;22.70;99.90;;;;;;4936033;29;20649;-78
2021/07/08 15:18:06;;;;;;;3.20;3.00;;;22.70;99.90;;;;;;4949488;29;20576;-78
2021/07/08 15:20:32;;;;;;;3.50;3.30;;;22.70;99.90;;;;;;4946770;29;20197;-78
2021/07/08 15:22:57;;;;;;;3.87;3.67;;;22.60;99.90;;;;;;4936932;29;20562;-78
2021/07/08 15:25:24;;;;;;;2.90;2.80;;;22.50;99.90;;;;;;4936867;29;20766;-77
2021/07/08 15:27:49;;;;;;;3.80;3.50;;;22.40;99.90;;;;;;4937003;29;20185;-79
2021/07/08 15:30:15;;;;;;;3.90;3.60;;;22.30;99.90;;;;;;4936960;29;20415;-76
2021/07/08 15:32:43;;;;;;;5.20;3.40;;;22.00;99.90;;;;;;4934925;29;20208;-77
2021/07/08 15:35:11;;;;;;;4.60;4.20;;;21.80;99.90;;;;;;4936342;29;20264;-77
2021/07/08 15:37:37;;;;;;;3.13;2.90;;;21.70;99.90;;;;;;4936150;29;20453;-77
2021/07/08 15:40:05;;;;;;;3.83;3.33;;;21.50;99.90;;;;;;4936520;29;20950;-78
2021/07/08 15:42:31;;;;;;;3.50;3.30;;;21.40;99.90;;;;;;4935886;29;20444;-77
2021/07/08 15:44:56;;;;;;;3.47;3.27;;;21.30;99.90;;;;;;4936080;28;20779;-77
2021/07/08 15:47:22;;;;;;;3.53;3.30;;;21.40;99.90;;;;;;4935452;29;20186;-76
2021/07/08 15:49:48;;;;;;;3.53;3.37;;;21.30;99.90;;;;;;4934488;28;20611;-77
2021/07/08 15:52:14;;;;;;;4.03;3.63;;;21.30;99.90;;;;;;4935527;28;20576;-76
2021/07/08 15:54:40;;;;;;;4.57;3.67;;;21.30;99.90;;;;;;4935489;29;20658;-70
2021/07/08 15:57:08;;;;;;;3.60;3.40;;;21.40;99.90;;;;;;4935368;29;20465;-70
2021/07/08 15:59:34;;;;;;;4.20;3.90;;;21.40;99.90;;;;;;4935193;29;20425;-70
2021/07/08 16:02:00;;;;;;;4.30;3.90;;;21.40;99.90;;;;;;4935177;29;20477;-70
2021/07/08 16:04:26;;;;;;;4.37;4.03;;;21.50;99.90;;;;;;4934959;29;20488;-71
2021/07/08 16:06:51;;;;;;;4.73;4.47;;;21.50;99.90;;;;;;4931768;29;20417;-72
2021/07/08 16:09:17;;;;;;;4.40;4.00;;;21.50;99.90;;;;;;4935208;29;20671;-71
2021/07/08 16:11:43;;;;;;;6.47;3.90;;;21.60;99.90;;;;;;4934294;29;20232;-74
2021/07/08 16:14:09;;;;;;;4.23;3.93;;;21.50;99.90;;;;;;4935180;28;20185;-73
2021/07/08 16:16:35;;;;;;;5.80;3.63;;;21.40;99.90;;;;;;4935037;29;20209;-68
2021/07/08 16:19:01;;;;;;;5.77;4.70;;;21.40;99.90;;;;;;4935524;29;20177;-72
2021/07/08 16:21:26;;;;;;;3.83;3.63;;;21.40;99.90;;;;;;4934695;29;20773;-72
2021/07/08 16:23:52;;;;;;;4.90;4.50;;;21.30;99.90;;;;;;4934897;29;20409;-72
2021/07/08 16:26:18;;;;;;;4.07;3.77;;;21.20;99.90;;;;;;4934906;29;20747;-72
2021/07/08 16:28:43;;;;;;;3.80;3.60;;;21.30;99.90;;;;;;4935390;29;20181;-73
2021/07/08 16:31:09;;;;;;;4.67;3.83;;;21.20;99.90;;;;;;4934995;29;20205;-72
2021/07/08 16:33:34;;;;;;;5.30;3.87;;;21.20;99.90;;;;;;4934018;29;20185;-71
2021/07/08 16:36:00;;;;;;;3.63;3.33;;;21.20;99.90;;;;;;4934142;29;20205;-72
2021/07/08 16:38:26;;;;;;;2.90;2.73;;;21.20;99.90;;;;;;4933521;29;20189;-73
2021/07/08 16:40:58;;;;;;;2.97;2.77;;;21.10;99.90;;;;;;4934673;29;20181;-74
2021/07/08 16:43:23;;;;;;;3.40;3.20;;;21.10;99.90;;;;;;4932888;28;20260;-73
2021/07/08 16:45:49;;;;;;;3.33;3.13;;;20.90;99.90;;;;;;4934789;29;20512;-72
2021/07/08 16:48:15;;;;;;;2.60;2.40;;;20.90;99.90;;;;;;4934045;29;20192;-72
2021/07/08 16:50:40;;;;;;;2.70;2.60;;;20.80;99.90;;;;;;4934545;29;20307;-71
2021/07/08 16:53:06;;;;;;;2.17;1.97;;;20.70;99.90;;;;;;4934473;29;20737;-73
2021/07/08 16:55:32;;;;;;;2.00;1.90;;;20.60;99.90;;;;;;4933633;29;20256;-72
2021/07/08 16:57:58;;;;;;;1.70;1.60;;;20.50;99.90;;;;;;4939539;28;20767;-72
2021/07/08 17:00:24;;;;;;;1.70;1.60;;;20.50;99.90;;;;;;4933762;29;20173;-73
2021/07/08 17:02:50;;;;;;;1.30;1.30;;;20.50;99.90;;;;;;4933810;29;20193;-72
2021/07/08 17:05:15;;;;;;;1.23;1.23;;;20.40;99.90;;;;;;4933979;29;20516;-70
2021/07/08 17:07:41;;;;;;;1.37;1.37;;;20.20;99.90;;;;;;4934145;29;20193;-72
2021/07/08 17:10:07;;;;;;;1.67;1.57;;;20.20;99.90;;;;;;4934126;29;20185;-72
2021/07/08 17:12:32;;;;;;;2.53;1.80;;;20.20;99.90;;;;;;4933923;29;20332;-72
2021/07/08 17:14:58;;;;;;;2.23;2.10;;;20.20;99.90;;;;;;4934074;29;20448;-72
2021/07/08 17:17:24;;;;;;;1.27;1.27;;;20.20;99.90;;;;;;4933621;29;20185;-72
2021/07/08 17:19:49;;;;;;;1.90;1.80;;;20.20;99.90;;;;;;4934328;29;20204;-73
2021/07/08 17:22:15;;;;;;;8.40;2.90;;;20.10;99.90;;;;;;4933513;29;20602;-72
2021/07/08 17:24:40;;;;;;;2.30;2.20;;;20.10;99.90;;;;;;4934116;29;20189;-72
2021/07/08 17:27:07;;;;;;;3.30;2.73;;;20.10;99.90;;;;;;4934000;29;20666;-72
2021/07/08 17:29:33;;;;;;;2.17;2.07;;;20.10;99.90;;;;;;4934561;29;20213;-73
2021/07/08 17:31:59;;;;;;;1.90;1.73;;;20.00;99.90;;;;;;4934691;29;20935;-73
2021/07/08 17:34:24;;;;;;;2.50;2.30;;;19.90;99.90;;;;;;4933849;29;20213;-72